Time;durP1;ratioP1;P1;durP2;ratioP2;P2;SDS_P1;SDS_P2;PMS_P1;PMS_P2;Temp;Humidity;BMP_temperature;BMP_pressure;BME280_temperature;BME280_humidity;BME280_pressure;Samples;Min_cycle;Max_cycle;Signal;HPM_P1;HPM_P2
2023/04/20 00:02:17;;;;;;;;;;;;;;;10.38;84.94;100332.16;6299908;22;20025;-85
2023/04/20 00:04:46;;;;;;;;;;;;;;;10.46;84.65;100331.31;6301841;22;19918;-88
2023/04/20 00:07:12;;;;;;;;;;;;;;;10.51;84.26;100323.56;6305700;22;20332;-88
2023/04/20 00:09:41;;;;;;;;;;;;;;;10.39;84.56;100324.91;6301340;22;20326;-88
2023/04/20 00:12:07;;;;;;;;;;;;;;;10.50;84.12;100327.28;6301467;22;19914;-87
2023/04/20 00:14:33;;;;;;;;;;;;;;;10.55;83.88;100330.28;6304071;22;19918;-86
2023/04/20 00:16:58;;;;;;;;;;;;;;;10.47;84.27;100325.78;6308299;22;19996;-87
2023/04/20 00:19:25;;;;;;;;;;;;;;;10.47;84.35;100330.31;6301531;22;19915;-87
2023/04/20 00:21:51;;;;;;;;;;;;;;;10.41;84.60;100328.28;6304736;22;19914;-86
2023/04/20 00:24:17;;;;;;;;;;;;;;;10.46;84.92;100317.88;6302377;22;19942;-87
2023/04/20 00:26:43;;;;;;;;;;;;;;;10.32;85.45;100322.91;6273491;22;19981;-87
2023/04/20 00:29:09;;;;;;;;;;;;;;;10.28;85.85;100324.25;6303429;22;19911;-86
2023/04/20 00:31:45;;;;;;;;;;;;;;;10.40;85.32;100324.75;6300650;22;20398;-88
2023/04/20 00:34:12;;;;;;;;;;;;;;;10.25;85.78;100329.91;6298607;22;19917;-89
2023/04/20 00:36:39;;;;;;;;;;;;;;;10.34;85.71;100323.56;6303437;22;19915;-86
2023/04/20 00:39:04;;;;;;;;;;;;;;;10.22;86.25;100307.94;6300328;22;19994;-86
2023/04/20 00:41:33;;;;;;;;;;;;;;;10.20;86.34;100316.16;6300327;22;19946;-88
2023/04/20 00:44:00;;;;;;;;;;;;;;;10.19;86.61;100319.84;6298635;22;19915;-89
2023/04/20 00:46:25;;;;;;;;;;;;;;;10.30;86.02;100313.31;6299528;22;19942;-87
2023/04/20 00:48:51;;;;;;;;;;;;;;;10.25;86.42;100316.47;6302788;22;19970;-87
2023/04/20 00:51:18;;;;;;;;;;;;;;;10.20;86.84;100310.78;6299809;22;19911;-86
2023/04/20 00:53:43;;;;;;;;;;;;;;;10.19;87.15;100319.84;6273803;22;20338;-86
2023/04/20 00:56:12;;;;;;;;;;;;;;;10.21;87.39;100307.09;6303562;22;19915;-88
2023/04/20 00:58:38;;;;;;;;;;;;;;;10.12;88.32;100316.16;6299260;22;20007;-87
2023/04/20 01:01:04;;;;;;;;;;;;;;;10.14;88.29;100311.47;6331011;22;20010;-88
2023/04/20 01:03:29;;;;;;;;;;;;;;;10.24;88.26;100306.75;6306831;22;19911;-87
2023/04/20 01:05:56;;;;;;;;;;;;;;;10.28;87.88;100305.44;6305752;22;19984;-87
2023/04/20 01:08:26;;;;;;;;;;;;;;;10.31;88.08;100306.97;6334000;22;20002;-87
2023/04/20 01:10:52;;;;;;;;;;;;;;;10.37;87.87;100302.75;6337517;22;19921;-87
2023/04/20 01:13:17;;;;;;;;;;;;;;;10.40;87.50;100310.50;6309520;22;19915;-87
2023/04/20 01:15:42;;;;;;;;;;;;;;;10.48;87.29;100307.78;6309546;22;19913;-87
2023/04/20 01:18:08;;;;;;;;;;;;;;;10.53;86.61;100310.81;6331494;22;20006;-87
2023/04/20 01:20:34;;;;;;;;;;;;;;;10.52;86.20;100304.59;6333767;22;20025;-88
2023/04/20 01:22:59;;;;;;;;;;;;;;;10.57;85.68;100306.78;6333235;22;20019;-87
2023/04/20 01:25:30;;;;;;;;;;;;;;;10.60;85.20;100305.59;6335263;22;19914;-85
2023/04/20 01:28:03;;;;;;;;;;;;;;;10.53;85.23;100313.50;6306695;22;20224;-88
2023/04/20 01:30:31;;;;;;;;;;;;;;;10.49;85.51;100314.84;6306966;22;20365;-89
2023/04/20 01:33:00;;;;;;;;;;;;;;;10.51;85.07;100310.13;6340913;22;19917;-88
2023/04/20 01:38:31;;;;;;;;;;;;;;;10.42;85.53;100306.63;6361768;22;19955;-89
2023/04/20 01:40:57;;;;;;;;;;;;;;;10.47;85.85;100300.75;6335085;22;19918;-87
2023/04/20 01:43:23;;;;;;;;;;;;;;;10.46;85.63;100304.44;6358519;22;19914;-89
2023/04/20 01:45:49;;;;;;;;;;;;;;;10.42;85.77;100297.69;6344217;22;20021;-90
2023/04/20 01:48:14;;;;;;;;;;;;;;;10.22;86.20;100303.38;6319648;22;19929;-89
2023/04/20 01:50:41;;;;;;;;;;;;;;;10.26;86.20;100299.38;6338300;22;19911;-89
2023/04/20 01:53:07;;;;;;;;;;;;;;;10.26;85.81;100296.69;6338565;22;19917;-87
2023/04/20 01:55:33;;;;;;;;;;;;;;;10.23;85.99;100297.03;6335783;22;19907;-89
2023/04/20 01:57:58;;;;;;;;;;;;;;;10.27;85.89;100295.66;6308262;22;20048;-88
2023/04/20 02:00:25;;;;;;;;;;;;;;;10.20;86.16;100300.03;6320405;22;19925;-87
2023/04/20 02:02:54;;;;;;;;;;;;;;;10.20;86.29;100307.25;6307259;22;19934;-87
2023/04/20 02:05:20;;;;;;;;;;;;;;;10.25;86.14;100307.59;6303155;22;19911;-87
2023/04/20 02:07:45;;;;;;;;;;;;;;;10.30;85.75;100302.56;6301638;22;19989;-88
2023/04/20 02:10:11;;;;;;;;;;;;;;;10.30;85.91;100314.19;6301023;22;19911;-87
2023/04/20 02:12:39;;;;;;;;;;;;;;;10.29;85.77;100312.50;6302584;22;19918;-91
2023/04/20 02:15:08;;;;;;;;;;;;;;;10.15;86.90;100313.97;6304531;22;19923;-87
2023/04/20 02:17:35;;;;;;;;;;;;;;;10.30;86.89;100310.63;6302889;22;19965;-87
2023/04/20 02:20:00;;;;;;;;;;;;;;;10.30;87.08;100316.00;6301864;22;20241;-86
2023/04/20 02:22:26;;;;;;;;;;;;;;;10.25;87.23;100316.47;6301351;22;19960;-87
2023/04/20 02:24:52;;;;;;;;;;;;;;;10.16;87.42;100314.81;6301294;22;19918;-87
2023/04/20 02:27:19;;;;;;;;;;;;;;;10.26;87.13;100309.28;6302464;22;20305;-87
2023/04/20 02:29:46;;;;;;;;;;;;;;;10.11;87.95;100311.75;6300902;22;19928;-87
2023/04/20 02:32:12;;;;;;;;;;;;;;;10.17;87.68;100311.13;6299591;22;19919;-87
2023/04/20 02:34:40;;;;;;;;;;;;;;;10.23;87.21;100310.47;6305120;22;19911;-87
2023/04/20 02:37:05;;;;;;;;;;;;;;;10.21;87.43;100307.09;6301827;22;20248;-86
2023/04/20 02:39:30;;;;;;;;;;;;;;;10.06;87.68;100306.06;6301861;22;19934;-89
2023/04/20 02:41:56;;;;;;;;;;;;;;;10.10;87.71;100307.41;6327353;22;19915;-88
2023/04/20 02:44:21;;;;;;;;;;;;;;;10.06;87.73;100303.38;6301695;22;20363;-87
2023/04/20 02:46:47;;;;;;;;;;;;;;;10.13;87.23;100293.63;6300052;22;19961;-85
2023/04/20 02:49:14;;;;;;;;;;;;;;;10.03;nan;100298.34;6303351;22;19945;-87
2023/04/20 02:51:40;;;;;;;;;;;;;;;9.94;88.52;100303.69;6301551;22;20259;-86
2023/04/20 02:54:05;;;;;;;;;;;;;;;9.89;89.13;100300.66;6301758;22;19911;-85
2023/04/20 02:56:30;;;;;;;;;;;;;;;9.91;89.67;100290.59;6303549;22;19959;-87
2023/04/20 02:58:56;;;;;;;;;;;;;;;9.95;89.92;100291.13;6302366;22;20551;-86
2023/04/20 03:01:21;;;;;;;;;;;;;;;10.03;89.83;100299.19;6331104;22;19919;-87
2023/04/20 03:03:48;;;;;;;;;;;;;;;10.12;89.03;100290.13;6335896;22;19910;-87
2023/04/20 03:06:14;;;;;;;;;;;;;;;10.04;89.11;100295.47;6305665;22;20346;-87
2023/04/20 03:08:41;;;;;;;;;;;;;;;10.06;89.35;100298.00;6306686;22;20300;-88
2023/04/20 03:11:07;;;;;;;;;;;;;;;10.11;88.78;100292.97;6337185;22;19914;-86
2023/04/20 03:13:32;;;;;;;;;;;;;;;9.99;89.87;100286.25;6339626;22;20057;-88
2023/04/20 03:15:58;;;;;;;;;;;;;;;9.91;90.99;100293.28;6338369;22;20292;-88
2023/04/20 03:18:25;;;;;;;;;;;;;;;9.96;90.97;100289.28;6308690;22;20186;-87
2023/04/20 03:20:51;;;;;;;;;;;;;;;9.94;91.37;100300.16;6335997;22;19946;-88
2023/04/20 03:23:17;;;;;;;;;;;;;;;9.97;91.52;100297.16;6338373;22;19914;-86
2023/04/20 03:25:42;;;;;;;;;;;;;;;9.97;91.69;100296.31;6336096;22;19999;-89
2023/04/20 03:28:07;;;;;;;;;;;;;;;9.97;92.21;100299.00;6336663;22;19964;-86
2023/04/20 03:30:55;;;;;;;;;;;;;;;10.15;91.15;100295.16;6282111;22;19930;-89
2023/04/20 03:33:31;;;;;;;;;;;;;;;9.99;92.12;100295.13;6337860;22;19985;-87
2023/04/20 03:38:59;;;;;;;;;;;;;;;10.23;90.68;100286.28;6342438;22;19917;-88
2023/04/20 03:41:24;;;;;;;;;;;;;;;10.26;90.61;100291.31;6339221;22;20288;-87
2023/04/20 03:44:03;;;;;;;;;;;;;;;10.29;90.34;100285.63;6341878;22;20013;-88
2023/04/20 03:46:29;;;;;;;;;;;;;;;10.23;90.45;100288.09;6312220;22;19985;-86
2023/04/20 03:48:55;;;;;;;;;;;;;;;10.35;90.50;100295.72;6309071;22;19910;-86
2023/04/20 03:51:20;;;;;;;;;;;;;;;10.25;91.24;100303.03;6341616;22;19988;-86
2023/04/20 03:53:47;;;;;;;;;;;;;;;10.30;90.94;100294.50;6287120;22;19955;-87
2023/04/20 03:56:14;;;;;;;;;;;;;;;10.48;90.73;100305.09;6312277;22;19915;-85
2023/04/20 03:58:39;;;;;;;;;;;;;;;10.50;90.96;100300.41;6346352;22;19962;-88
2023/04/20 04:01:08;;;;;;;;;;;;;;;10.61;90.23;100305.44;6361060;22;19914;-89
2023/04/20 04:03:34;;;;;;;;;;;;;;;10.63;90.23;100291.81;6359589;22;19933;-86
2023/04/20 04:05:59;;;;;;;;;;;;;;;10.67;89.73;100301.22;6330891;22;19963;-87
2023/04/20 04:08:26;;;;;;;;;;;;;;;10.81;89.01;100308.56;6330760;22;19917;-85
2023/04/20 04:10:51;;;;;;;;;;;;;;;10.83;88.96;100303.03;6322482;22;19938;-87
2023/04/20 04:13:17;;;;;;;;;;;;;;;10.87;88.81;100296.31;6336495;22;20305;-86
2023/04/20 04:15:42;;;;;;;;;;;;;;;10.94;88.70;100302.69;6309217;22;19978;-89
2023/04/20 04:18:11;;;;;;;;;;;;;;;11.10;87.43;100297.25;6334416;22;19911;-86
2023/04/20 04:20:36;;;;;;;;;;;;;;;11.19;87.35;100301.59;6311156;22;19911;-86
2023/04/20 04:23:02;;;;;;;;;;;;;;;11.32;87.08;100300.19;6334372;22;20319;-88
2023/04/20 04:25:28;;;;;;;;;;;;;;;11.46;86.44;100306.69;6334195;22;20272;-88
2023/04/20 04:27:53;;;;;;;;;;;;;;;11.51;85.79;100298.94;6309218;22;19915;-89
2023/04/20 04:30:23;;;;;;;;;;;;;;;11.52;85.40;100309.53;6335068;22;20225;-87
2023/04/20 04:32:51;;;;;;;;;;;;;;;11.57;85.22;100309.00;6333958;22;19945;-90
2023/04/20 04:35:18;;;;;;;;;;;;;;;11.56;84.98;100305.47;6336088;22;19919;-90
2023/04/20 04:37:53;;;;;;;;;;;;;;;11.79;84.60;100305.50;6335331;22;20380;-90
2023/04/20 04:40:51;;;;;;;;;;;;;;;11.80;84.26;100314.44;6346841;22;20037;-88
2023/04/20 04:43:44;;;;;;;;;;;;;;;11.97;83.66;100304.44;6355716;22;19915;-88
2023/04/20 04:46:10;;;;;;;;;;;;;;;12.04;83.47;100308.09;6332059;22;19956;-93
2023/04/20 04:48:41;;;;;;;;;;;;;;;12.19;83.07;100311.66;6332670;22;19902;-90
2023/04/20 04:51:07;;;;;;;;;;;;;;;12.13;82.69;100303.50;6319201;22;20030;-88
2023/04/20 04:53:32;;;;;;;;;;;;;;;12.13;82.68;100311.56;6336071;22;19981;-87
2023/04/20 04:55:58;;;;;;;;;;;;;;;12.11;82.98;100308.22;6308632;22;19975;-88
2023/04/20 04:58:24;;;;;;;;;;;;;;;12.03;83.58;100311.78;6335844;22;20298;-88
2023/04/20 05:00:51;;;;;;;;;;;;;;;12.09;82.86;100316.47;6307655;22;19929;-88
2023/04/20 05:03:16;;;;;;;;;;;;;;;12.11;82.05;100313.59;6339571;22;19911;-88
2023/04/20 05:05:42;;;;;;;;;;;;;;;12.21;82.23;100324.97;6281512;22;20328;-88
2023/04/20 05:08:07;;;;;;;;;;;;;;;12.23;81.74;100320.25;6336669;22;19957;-89
2023/04/20 05:10:36;;;;;;;;;;;;;;;12.39;81.75;100322.81;6338674;22;19984;-88
2023/04/20 05:13:04;;;;;;;;;;;;;;;12.36;81.35;100331.28;6283333;22;19964;-88
2023/04/20 05:15:30;;;;;;;;;;;;;;;12.49;81.22;100327.94;6307102;22;19930;-86
2023/04/20 05:18:01;;;;;;;;;;;;;;;12.42;81.50;100335.91;6335618;22;19926;-87
2023/04/20 05:20:28;;;;;;;;;;;;;;;12.48;80.83;100328.97;6282273;22;19919;-89
2023/04/20 05:22:53;;;;;;;;;;;;;;;12.36;81.21;100331.28;6336048;22;20044;-88
2023/04/20 05:25:19;;;;;;;;;;;;;;;12.52;81.00;100332.13;6307575;22;19926;-86
2023/04/20 05:27:45;;;;;;;;;;;;;;;12.45;80.72;100324.78;6280616;22;20311;-88
2023/04/20 05:30:12;;;;;;;;;;;;;;;12.44;80.80;100328.50;6338826;22;20223;-92
2023/04/20 05:32:43;;;;;;;;;;;;;;;12.37;81.12;100332.94;6309624;22;19911;-89
2023/04/20 05:35:09;;;;;;;;;;;;;;;12.45;80.58;100335.56;6335297;22;19914;-90
2023/04/20 05:37:34;;;;;;;;;;;;;;;12.36;81.18;100325.00;6291854;22;19922;-91
2023/04/20 05:40:01;;;;;;;;;;;;;;;12.31;81.50;100330.13;6314562;22;19914;-90
2023/04/20 05:42:27;;;;;;;;;;;;;;;12.52;80.23;100330.28;6296253;22;19918;-94
2023/04/20 05:44:53;;;;;;;;;;;;;;;12.49;80.49;100327.94;6329743;22;19915;-90
2023/04/20 05:47:19;;;;;;;;;;;;;;;12.70;80.35;100332.66;6352523;22;19915;-93
2023/04/20 05:49:48;;;;;;;;;;;;;;;12.65;79.46;100335.91;6289445;22;19936;-90
2023/04/20 05:52:20;;;;;;;;;;;;;;;12.66;79.92;100332.16;6336501;22;20310;-92
2023/04/20 05:54:58;;;;;;;;;;;;;;;12.59;79.76;100339.31;6313031;22;19915;-92
2023/04/20 05:57:24;;;;;;;;;;;;;;;12.43;79.85;100329.53;6337068;22;20254;-92
2023/04/20 05:59:50;;;;;;;;;;;;;;;12.49;80.09;100332.50;6283645;22;19919;-90
2023/04/20 06:02:15;;;;;;;;;;;;;;;12.16;80.64;100340.84;6336239;22;20033;-91
2023/04/20 06:04:42;;;;;;;;;;;;;;;12.06;81.40;100334.84;6310020;22;20235;-87
2023/04/20 06:07:09;;;;;;;;;;;;;;;12.01;80.98;100333.53;6333012;22;19919;-91
2023/04/20 06:09:35;;;;;;;;;;;;;;;12.10;81.05;100337.00;6339086;22;19921;-91
2023/04/20 06:12:01;;;;;;;;;;;;;;;12.22;80.99;100332.03;6307530;22;20336;-90
2023/04/20 06:14:27;;;;;;;;;;;;;;;12.24;80.32;100338.94;6306259;22;19945;-90
2023/04/20 06:16:54;;;;;;;;;;;;;;;12.25;80.14;100331.69;6333044;22;20297;-89
2023/04/20 06:19:34;;;;;;;;;;;;;;;12.45;79.44;100329.31;6285850;22;20009;-88
2023/04/20 06:22:01;;;;;;;;;;;;;;;12.61;78.56;100323.78;6307653;22;20301;-89
2023/04/20 06:24:27;;;;;;;;;;;;;;;12.72;78.29;100336.00;6337846;22;19926;-89
2023/04/20 06:26:52;;;;;;;;;;;;;;;12.78;77.82;100329.03;6311394;22;19998;-91
2023/04/20 06:29:18;;;;;;;;;;;;;;;12.80;77.52;100329.69;6336261;22;20247;-93
2023/04/20 06:31:51;;;;;;;;;;;;;;;12.92;77.24;100338.16;6310900;22;19910;-92
2023/04/20 06:34:17;;;;;;;;;;;;;;;12.88;77.04;100335.03;6321904;22;19925;-94
2023/04/20 06:36:42;;;;;;;;;;;;;;;12.85;77.78;100335.38;6342092;22;19911;-91
2023/04/20 06:39:13;;;;;;;;;;;;;;;12.74;78.42;100338.53;6315872;22;19898;-94
2023/04/20 06:45:05;;;;;;;;;;;;;;;13.10;78.12;100330.56;6351979;22;19922;-92
2023/04/20 06:47:39;;;;;;;;;;;;;;;13.42;77.23;100326.69;6339624;22;20025;-95
2023/04/20 06:58:25;;;;;;;;;;;;;;;14.56;72.47;100317.94;6342477;22;19955;-94
2023/04/20 07:00:53;;;;;;;;;;;;;;;14.73;70.91;100332.88;6315169;22;19914;-91
2023/04/20 07:06:24;;;;;;;;;;;;;;;14.42;73.43;100333.22;6343257;22;19925;-93
2023/04/20 07:09:29;;;;;;;;;;;;;;;;;;;;;
2023/04/20 07:12:39;;;;;;;;;;;;;;;14.23;76.95;100331.97;6227663;23;19918;-94
2023/04/20 07:18:10;;;;;;;;;;;;;;;13.97;77.64;100335.22;6304749;22;19933;-94
2023/04/20 07:20:44;;;;;;;;;;;;;;;13.95;76.04;100334.59;6318891;22;19918;-90
2023/04/20 07:23:11;;;;;;;;;;;;;;;13.82;76.25;100337.16;6293703;22;19985;-92
2023/04/20 07:25:36;;;;;;;;;;;;;;;13.78;78.03;100346.66;6313143;22;19941;-87
2023/04/20 07:28:03;;;;;;;;;;;;;;;13.79;77.02;100343.78;6308491;22;20056;-87
2023/04/20 07:30:30;;;;;;;;;;;;;;;13.94;77.03;100339.16;6308057;22;19993;-86
2023/04/20 07:32:58;;;;;;;;;;;;;;;14.13;77.40;100347.69;6308328;22;20331;-89
2023/04/20 07:35:24;;;;;;;;;;;;;;;14.27;76.78;100341.38;6308414;22;19938;-87
2023/04/20 07:37:51;;;;;;;;;;;;;;;14.28;75.64;100344.91;6308679;22;19918;-86
2023/04/20 07:40:18;;;;;;;;;;;;;;;14.54;74.73;100339.78;6336307;22;19989;-87
2023/04/20 07:42:45;;;;;;;;;;;;;;;14.60;74.24;100335.47;6333649;22;19922;-88
2023/04/20 07:45:15;;;;;;;;;;;;;;;14.43;73.64;100337.56;6333758;22;19917;-90
2023/04/20 07:47:42;;;;;;;;;;;;;;;14.38;74.52;100339.19;6309800;22;20418;-88
2023/04/20 07:53:15;;;;;;;;;;;;;;;14.53;71.53;100329.97;6249946;22;19915;-91
2023/04/20 07:55:48;;;;;;;;;;;;;;;14.64;70.43;100341.34;6333516;22;19956;-90
2023/04/20 07:58:17;;;;;;;;;;;;;;;15.01;68.39;100342.00;6358361;22;19914;-91
2023/04/20 08:00:53;;;;;;;;;;;;;;;15.11;67.99;100346.06;6316064;22;19942;-92
2023/04/20 08:06:50;;;;;;;;;;;;;;;;;;;;;
2023/04/20 08:09:19;;;;;;;;;;;;;;;15.20;67.16;100336.75;6362390;22;19928;-92
2023/04/20 08:11:45;;;;;;;;;;;;;;;15.15;67.12;100339.22;6303979;22;20152;-92
2023/04/20 08:14:13;;;;;;;;;;;;;;;15.10;67.67;100338.13;6348314;22;19907;-91
2023/04/20 08:16:45;;;;;;;;;;;;;;;15.09;67.95;100336.47;6345863;22;19906;-93
2023/04/20 08:19:23;;;;;;;;;;;;;;;15.54;66.07;100332.31;6341841;22;19923;-92
2023/04/20 08:21:53;;;;;;;;;;;;;;;16.45;63.04;100337.41;6308141;22;19975;-94
2023/04/20 08:24:42;;;;;;;;;;;;;;;16.72;61.58;100334.72;6347390;22;20006;-94
2023/04/20 08:27:29;;;;;;;;;;;;;;;16.49;60.85;100326.97;6353209;22;19906;-96
2023/04/20 08:33:09;;;;;;;;;;;;;;;15.86;62.74;100331.88;6353915;22;19922;-93
2023/04/20 08:35:36;;;;;;;;;;;;;;;15.88;62.18;100327.09;6318774;22;19922;-93
2023/04/20 08:38:16;;;;;;;;;;;;;;;15.91;62.01;100337.50;6347293;22;19911;-95
2023/04/20 08:40:43;;;;;;;;;;;;;;;17.34;58.26;100329.84;6341344;22;19921;-94
2023/04/20 08:43:29;;;;;;;;;;;;;;;17.87;56.29;100321.50;6342990;22;19910;-95
2023/04/20 08:46:07;;;;;;;;;;;;;;;17.06;58.52;100330.09;6316349;22;19918;-91
2023/04/20 08:48:36;;;;;;;;;;;;;;;17.02;59.25;100329.72;6341391;22;20319;-94
2023/04/20 09:02:28;;;;;;;;;;;;;;;17.31;58.01;100322.13;6306039;22;19969;-92
2023/04/20 09:16:14;;;;;;;;;;;;;;;16.17;60.02;100323.19;6315891;22;20021;-94
2023/04/20 09:19:09;;;;;;;;;;;;;;;15.72;62.04;100329.09;6341173;22;19919;-94
2023/04/20 09:21:52;;;;;;;;;;;;;;;15.52;63.08;100325.44;6316567;22;19926;-94
2023/04/20 09:24:22;;;;;;;;;;;;;;;15.26;63.36;100326.13;6335359;22;19914;-91
2023/04/20 09:26:50;;;;;;;;;;;;;;;15.37;63.65;100329.13;6334770;22;19927;-94
2023/04/20 09:29:25;;;;;;;;;;;;;;;15.79;62.39;100321.00;6294308;22;19915;-95
2023/04/20 09:33:16;;;;;;;;;;;;;;;;;;;;;
2023/04/20 09:35:21;;;;;;;;;;;;;;;16.98;58.86;100328.47;6206685;23;19912;-90
2023/04/20 09:37:55;;;;;;;;;;;;;;;17.21;57.50;100319.03;6194069;23;19939;-93
2023/04/20 09:40:46;;;;;;;;;;;;;;;17.62;56.46;100325.97;6218868;23;19911;-94
2023/04/20 09:43:18;;;;;;;;;;;;;;;17.96;55.48;100335.69;6199024;23;19935;-94
2023/04/20 09:45:56;;;;;;;;;;;;;;;17.81;55.26;100335.13;6326028;22;20445;-92
2023/04/20 09:48:33;;;;;;;;;;;;;;;20.57;48.69;100329.22;6357390;22;19921;-95
2023/04/20 09:51:03;;;;;;;;;;;;;;;23.30;42.25;100318.69;6329600;22;19941;-95
2023/04/20 09:53:49;;;;;;;;;;;;;;;22.59;43.38;100328.53;6333690;22;19932;-89
2023/04/20 09:56:44;;;;;;;;;;;;;;;21.32;46.80;100341.34;6314762;22;19914;-92
2023/04/20 09:59:10;;;;;;;;;;;;;;;18.96;53.24;100340.41;6319395;22;20223;-92
2023/04/20 10:01:37;;;;;;;;;;;;;;;17.50;55.95;100345.66;6349759;22;19910;-93
2023/04/20 10:04:13;;;;;;;;;;;;;;;17.45;56.53;100345.47;6347744;22;19910;-95
2023/04/20 10:06:41;;;;;;;;;;;;;;;19.74;50.66;100331.63;6312886;22;19967;-91
2023/04/20 10:09:33;;;;;;;;;;;;;;;20.12;49.56;100332.41;6301285;22;20907;-93
2023/04/20 10:12:19;;;;;;;;;;;;;;;20.78;47.30;100334.09;6343454;22;19945;-91
2023/04/20 10:14:55;;;;;;;;;;;;;;;20.86;47.55;100332.91;6349985;22;19964;-96
2023/04/20 10:17:29;;;;;;;;;;;;;;;20.69;46.73;100331.97;6327638;22;19998;-94
2023/04/20 10:19:56;;;;;;;;;;;;;;;19.86;48.76;100345.34;6317378;22;19938;-91
2023/04/20 10:22:48;;;;;;;;;;;;;;;19.70;51.21;100335.88;6336999;22;20370;-88
2023/04/20 10:25:18;;;;;;;;;;;;;;;19.42;50.65;100341.84;6309261;22;19921;-93
2023/04/20 10:27:57;;;;;;;;;;;;;;;19.35;50.98;100332.91;6306592;22;20301;-86
2023/04/20 10:30:29;;;;;;;;;;;;;;;19.15;51.51;100338.56;6306773;22;19914;-88
2023/04/20 10:33:07;;;;;;;;;;;;;;;18.40;53.03;100335.81;6334648;22;19999;-88
2023/04/20 10:35:43;;;;;;;;;;;;;;;18.10;53.50;100334.56;6307694;22;19910;-88
2023/04/20 10:38:10;;;;;;;;;;;;;;;17.84;54.62;100343.69;6309758;22;19918;-89
2023/04/20 10:40:37;;;;;;;;;;;;;;;17.20;55.65;100344.50;6336537;22;19914;-86
2023/04/20 10:43:02;;;;;;;;;;;;;;;17.31;55.88;100338.41;6312523;22;19914;-88
2023/04/20 10:45:40;;;;;;;;;;;;;;;17.38;55.98;100350.09;6339234;22;19922;-87
2023/04/20 10:48:08;;;;;;;;;;;;;;;20.66;48.22;100334.09;6313177;22;19911;-88
2023/04/20 10:50:38;;;;;;;;;;;;;;;22.74;43.11;100326.06;6337233;22;20301;-91
2023/04/20 10:53:16;;;;;;;;;;;;;;;22.89;42.38;100336.41;6337914;22;19910;-89
2023/04/20 10:55:44;;;;;;;;;;;;;;;22.70;42.32;100330.38;6334115;22;19934;-92
2023/04/20 10:58:21;;;;;;;;;;;;;;;22.03;43.48;100333.81;6334618;22;19933;-91
2023/04/20 11:00:55;;;;;;;;;;;;;;;20.91;46.04;100330.34;6309793;22;20001;-91
2023/04/20 11:03:21;;;;;;;;;;;;;;;21.15;45.64;100335.78;6306551;22;20005;-88
2023/04/20 11:05:48;;;;;;;;;;;;;;;20.64;46.63;100336.22;6306418;22;19961;-88
2023/04/20 11:08:14;;;;;;;;;;;;;;;19.75;48.31;100330.56;6332817;22;19914;-88
2023/04/20 11:10:41;;;;;;;;;;;;;;;18.63;50.40;100335.25;6334829;22;20267;-89
2023/04/20 11:13:28;;;;;;;;;;;;;;;18.45;50.56;100338.72;6311117;22;19914;-90
2023/04/20 11:15:54;;;;;;;;;;;;;;;18.35;50.93;100323.75;6334567;22;19919;-88
2023/04/20 11:18:21;;;;;;;;;;;;;;;18.07;51.47;100326.00;6308823;22;19915;-90
2023/04/20 11:20:51;;;;;;;;;;;;;;;17.90;52.21;100331.94;6341792;22;19985;-91
2023/04/20 11:23:18;;;;;;;;;;;;;;;17.80;52.28;100336.16;6337437;22;19910;-90
2023/04/20 11:26:09;;;;;;;;;;;;;;;17.51;52.73;100338.34;6336519;22;20397;-89
2023/04/20 11:28:35;;;;;;;;;;;;;;;17.67;53.21;100342.47;6334855;22;20196;-90
2023/04/20 11:31:08;;;;;;;;;;;;;;;17.84;53.09;100338.25;6285872;22;19911;-91
2023/04/20 11:33:38;;;;;;;;;;;;;;;17.97;53.10;100333.81;6285965;22;20042;-89
2023/04/20 11:36:04;;;;;;;;;;;;;;;18.20;51.93;100325.09;6307394;22;19941;-89
2023/04/20 11:38:31;;;;;;;;;;;;;;;18.74;50.42;100319.00;6283248;22;20247;-90
2023/04/20 11:40:57;;;;;;;;;;;;;;;19.24;49.19;100330.94;6312605;22;20288;-90
2023/04/20 11:43:28;;;;;;;;;;;;;;;19.84;47.91;100322.91;6291827;22;19971;-90
2023/04/20 11:46:04;;;;;;;;;;;;;;;19.11;48.56;100319.13;6348513;22;20327;-88
2023/04/20 11:48:32;;;;;;;;;;;;;;;18.26;50.25;100322.34;6315031;22;19918;-89
2023/04/20 11:50:59;;;;;;;;;;;;;;;18.11;51.01;100316.34;6313959;22;19910;-89
2023/04/20 11:53:28;;;;;;;;;;;;;;;17.76;51.93;100318.59;6319132;22;19966;-90
2023/04/20 11:56:06;;;;;;;;;;;;;;;17.61;52.85;100311.56;6313982;22;19930;-90
2023/04/20 11:58:33;;;;;;;;;;;;;;;17.57;53.62;100314.94;6310931;22;19914;-90
2023/04/20 12:01:12;;;;;;;;;;;;;;;17.31;53.95;100300.38;6311698;22;19914;-94
2023/04/20 12:03:39;;;;;;;;;;;;;;;16.75;54.68;100322.59;6287921;22;19914;-92
2023/04/20 12:06:10;;;;;;;;;;;;;;;16.82;54.95;100312.59;6311917;22;19989;-92
2023/04/20 12:08:38;;;;;;;;;;;;;;;17.33;54.24;100303.72;6341817;22;19910;-92
2023/04/20 12:11:03;;;;;;;;;;;;;;;17.88;53.05;100327.78;6338823;22;19918;-90
2023/04/20 12:13:28;;;;;;;;;;;;;;;17.37;53.64;100321.28;6337321;22;19921;-90
2023/04/20 12:15:58;;;;;;;;;;;;;;;17.05;54.45;100329.28;6285750;22;19934;-89
2023/04/20 12:18:25;;;;;;;;;;;;;;;17.04;54.43;100314.03;6341662;22;19922;-89
2023/04/20 12:20:51;;;;;;;;;;;;;;;17.05;54.69;100328.44;6341716;22;20055;-90
2023/04/20 12:23:17;;;;;;;;;;;;;;;17.22;54.59;100328.81;6341161;22;19910;-90
2023/04/20 12:25:44;;;;;;;;;;;;;;;17.11;54.38;100324.03;6346359;22;19989;-93
2023/04/20 12:28:11;;;;;;;;;;;;;;;16.71;55.68;100321.34;6332591;22;19932;-91
2023/04/20 12:30:36;;;;;;;;;;;;;;;16.67;55.94;100329.91;6313546;22;19910;-89
2023/04/20 12:33:03;;;;;;;;;;;;;;;16.64;56.40;100327.59;6339174;22;20033;-90
2023/04/20 12:35:28;;;;;;;;;;;;;;;16.92;55.73;100329.28;6310111;22;19911;-90
2023/04/20 12:37:56;;;;;;;;;;;;;;;17.17;55.34;100329.47;6311660;22;20088;-90
2023/04/20 12:40:24;;;;;;;;;;;;;;;16.85;55.59;100323.03;6338806;22;19917;-91
2023/04/20 12:42:50;;;;;;;;;;;;;;;16.87;55.03;100326.38;6290722;22;19918;-89
2023/04/20 12:45:29;;;;;;;;;;;;;;;17.26;54.39;100313.78;6329589;22;19914;-89
2023/04/20 12:48:03;;;;;;;;;;;;;;;17.24;54.23;100313.16;6304838;22;19914;-91
2023/04/20 12:50:31;;;;;;;;;;;;;;;17.55;53.27;100327.91;6330071;22;19990;-90
2023/04/20 12:52:58;;;;;;;;;;;;;;;17.88;52.14;100312.28;6351773;22;19934;-93
2023/04/20 12:55:58;;;;;;;;;;;;;;;17.80;52.13;100315.25;6316157;22;19964;-90
2023/04/20 12:58:43;;;;;;;;;;;;;;;17.97;52.44;100306.59;6350273;22;19914;-90
2023/04/20 13:01:33;;;;;;;;;;;;;;;17.36;53.45;100316.03;6313371;22;19933;-91
2023/04/20 13:04:02;;;;;;;;;;;;;;;16.96;54.26;100319.69;6338397;22;20274;-90
2023/04/20 13:12:58;;;;;;;;;;;;;;;16.08;58.25;100306.25;6357513;22;19925;-93
2023/04/20 13:15:36;;;;;;;;;;;;;;;15.85;58.87;100311.22;6341662;22;19986;-95
2023/04/20 13:33:27;;;;;;;;;;;;;;;16.21;58.94;100316.31;6236796;23;19919;-94
2023/04/20 13:35:56;;;;;;;;;;;;;;;16.24;59.28;100316.72;6235034;23;19927;-94
2023/04/20 13:38:36;;;;;;;;;;;;;;;16.15;59.22;100309.81;6330997;22;19917;-96
2023/04/20 13:41:15;;;;;;;;;;;;;;;16.24;58.93;100311.28;6354445;22;19902;-95
2023/04/20 13:44:14;;;;;;;;;;;;;;;16.35;57.85;100317.16;6316261;22;19910;-94
2023/04/20 13:49:54;;;;;;;;;;;;;;;16.11;58.32;100316.72;6352379;22;19917;-96
2023/04/20 13:58:56;;;;;;;;;;;;;;;16.07;58.96;100314.63;6352357;22;19983;-96
2023/04/20 14:05:02;;;;;;;;;;;;;;;15.54;60.20;100317.94;6348226;22;19906;-96
2023/04/20 14:53:02;;;;;;;;;;;;;;;15.22;61.62;100341.09;6370776;22;19918;-93
2023/04/20 14:55:33;;;;;;;;;;;;;;;15.01;60.29;100347.44;6346361;22;19914;-94
2023/04/20 14:58:41;;;;;;;;;;;;;;;15.13;59.97;100335.03;6345618;22;20263;-95
2023/04/20 15:01:06;;;;;;;;;;;;;;;15.25;59.83;100343.44;6376648;22;19941;-93
2023/04/20 15:03:38;;;;;;;;;;;;;;;15.33;59.71;100354.94;6346684;22;19982;-93
2023/04/20 15:06:04;;;;;;;;;;;;;;;15.06;61.29;100351.22;6373062;22;19921;-91
2023/04/20 15:08:32;;;;;;;;;;;;;;;15.12;59.90;100358.53;6345642;22;19909;-91
2023/04/20 15:11:02;;;;;;;;;;;;;;;15.02;59.91;100359.94;6340332;22;19914;-89
2023/04/20 15:13:39;;;;;;;;;;;;;;;14.98;60.74;100365.75;6336228;22;20062;-90